weather.gov     
National Weather Service

Terminal Aerodrome Forecast
NWS Homepage
This page is being discontinued on March 12, 2014.
The same data is available at this site. Please update your bookmarks.
Thank you, and we apologize for the inconvenience.
Please send an email to SR-SRH.Webmaster@noaa.gov with any concerns.


Current Version
Previous Version:    01  02  03  04  05  06  07  08  09  10  11  12  13  14  15  16  17  18  19  20  21  22  23  24  25  26  27  28  
[Printable]
268
FTUS44 KBMX 231000 AAB
TAFEET
TAF AMD
KEET 231059Z 2311/2406 10006KT P6SM VCSH OVC008
      TEMPO 2311/2315 4SM -SHRA
     FM231500 12012G18KT 5SM -SHRA OVC010
      TEMPO 2315/2318 2SM SHRA
     FM231800 15012G20KT 5SM SHRA VCTS OVC015CB
      TEMPO 2318/2321 2SM TSRA OVC005CB
     FM232100 19012G28KT P6SM VCSH OVC015
     FM240200 19010KT P6SM SCT250=


U.S. Dept. of Commerce
NOAA National Weather Service
1325 East West Highway
Silver Spring, MD 20910
E-mail: w-nws.webmaster@noaa.gov
Page last modified: May 16, 2007
NATIONAL WEATHER SERVICE: for Safety, for Work, for Fun - FOR LIFE